sensor_id;sensor_type;location;lat;lon;timestamp;pressure;altitude;pressure_sealevel;temperature;humidity
58761;BME280;44529;47.464;19.014;2023-02-23T00:01:53;100279.12;;;8.92;68.81
58761;BME280;44529;47.464;19.014;2023-02-23T00:04:56;100279.69;;;8.75;69.18
58761;BME280;44529;47.464;19.014;2023-02-23T00:07:58;100281.31;;;8.76;68.76
58761;BME280;44529;47.464;19.014;2023-02-23T00:11:04;100277.78;;;8.76;68.75
58761;BME280;44529;47.464;19.014;2023-02-23T00:14:06;100278.41;;;8.86;68.32
58761;BME280;44529;47.464;19.014;2023-02-23T00:17:09;100276.91;;;8.80;68.31
58761;BME280;44529;47.464;19.014;2023-02-23T00:20:16;100277.91;;;8.84;68.16
58761;BME280;44529;47.464;19.014;2023-02-23T00:23:18;100272.44;;;8.89;68.30
58761;BME280;44529;47.464;19.014;2023-02-23T00:26:22;100273.72;;;8.92;67.78
58761;BME280;44529;47.464;19.014;2023-02-23T00:29:25;100276.91;;;8.94;67.61
58761;BME280;44529;47.464;19.014;2023-02-23T00:32:28;100283.91;;;8.81;68.33
58761;BME280;44529;47.464;19.014;2023-02-23T00:35:32;100283.31;;;8.84;68.25
58761;BME280;44529;47.464;19.014;2023-02-23T00:38:34;100280.63;;;8.84;67.92
58761;BME280;44529;47.464;19.014;2023-02-23T00:41:37;100286.31;;;8.83;67.93
58761;BME280;44529;47.464;19.014;2023-02-23T00:44:41;100277.63;;;8.86;67.85
58761;BME280;44529;47.464;19.014;2023-02-23T00:47:43;100281.31;;;8.76;67.76
58761;BME280;44529;47.464;19.014;2023-02-23T00:50:47;100286.72;;;8.76;67.83
58761;BME280;44529;47.464;19.014;2023-02-23T00:53:56;100281.00;;;8.78;66.99
58761;BME280;44529;47.464;19.014;2023-02-23T00:56:58;100286.50;;;8.73;66.97
58761;BME280;44529;47.464;19.014;2023-02-23T01:00:03;100285.78;;;8.67;66.77
58761;BME280;44529;47.464;19.014;2023-02-23T01:03:14;100286.88;;;8.66;66.66
58761;BME280;44529;47.464;19.014;2023-02-23T01:06:16;100296.66;;;8.62;66.99
58761;BME280;44529;47.464;19.014;2023-02-23T01:09:19;100292.34;;;8.61;67.40
58761;BME280;44529;47.464;19.014;2023-02-23T01:12:29;100291.06;;;8.58;67.66
58761;BME280;44529;47.464;19.014;2023-02-23T01:15:31;100291.78;;;8.64;66.97
58761;BME280;44529;47.464;19.014;2023-02-23T01:18:35;100290.38;;;8.66;66.27
58761;BME280;44529;47.464;19.014;2023-02-23T01:21:40;100293.56;;;8.68;65.58
58761;BME280;44529;47.464;19.014;2023-02-23T01:24:43;100291.87;;;8.59;64.84
58761;BME280;44529;47.464;19.014;2023-02-23T01:27:45;100289.66;;;8.61;65.17
58761;BME280;44529;47.464;19.014;2023-02-23T01:30:48;100297.25;;;8.59;65.10
58761;BME280;44529;47.464;19.014;2023-02-23T01:33:58;100295.44;;;8.54;65.11
58761;BME280;44529;47.464;19.014;2023-02-23T01:37:03;100289.62;;;8.47;65.61
58761;BME280;44529;47.464;19.014;2023-02-23T01:40:09;100284.41;;;8.37;65.89
58761;BME280;44529;47.464;19.014;2023-02-23T01:43:18;100287.81;;;8.43;66.23
58761;BME280;44529;47.464;19.014;2023-02-23T01:46:33;100286.22;;;8.41;65.97
58761;BME280;44529;47.464;19.014;2023-02-23T01:49:36;100281.63;;;8.42;65.65
58761;BME280;44529;47.464;19.014;2023-02-23T01:52:38;100282.59;;;8.32;65.22
58761;BME280;44529;47.464;19.014;2023-02-23T01:55:42;100278.22;;;8.36;65.53
58761;BME280;44529;47.464;19.014;2023-02-23T01:58:46;100285.59;;;8.31;65.70
58761;BME280;44529;47.464;19.014;2023-02-23T02:01:54;100277.16;;;8.37;65.37
58761;BME280;44529;47.464;19.014;2023-02-23T02:04:59;100284.63;;;8.40;65.13
58761;BME280;44529;47.464;19.014;2023-02-23T02:08:02;100283.41;;;8.33;65.38
58761;BME280;44529;47.464;19.014;2023-02-23T02:11:07;100277.84;;;8.24;65.21
58761;BME280;44529;47.464;19.014;2023-02-23T02:14:28;100285.25;;;8.19;65.52
58761;BME280;44529;47.464;19.014;2023-02-23T02:28:29;100276.88;;;8.20;65.63
58761;BME280;44529;47.464;19.014;2023-02-23T02:31:48;100272.06;;;8.17;65.51
58761;BME280;44529;47.464;19.014;2023-02-23T02:35:02;100277.97;;;8.19;65.26
58761;BME280;44529;47.464;19.014;2023-02-23T02:48:19;100279.56;;;8.20;65.28
58761;BME280;44529;47.464;19.014;2023-02-23T02:52:13;100279.56;;;8.20;65.87
58761;BME280;44529;47.464;19.014;2023-02-23T02:54:52;100274.06;;;8.11;66.09
58761;BME280;44529;47.464;19.014;2023-02-23T02:57:58;100282.62;;;8.13;65.90
58761;BME280;44529;47.464;19.014;2023-02-23T03:01:06;100281.53;;;8.14;65.90
58761;BME280;44529;47.464;19.014;2023-02-23T03:04:28;100285.75;;;8.21;64.79
58761;BME280;44529;47.464;19.014;2023-02-23T03:08:07;100283.25;;;8.24;65.02
58761;BME280;44529;47.464;19.014;2023-02-23T03:11:38;100289.72;;;8.23;64.83
58761;BME280;44529;47.464;19.014;2023-02-23T03:15:16;100281.59;;;8.09;65.58
58761;BME280;44529;47.464;19.014;2023-02-23T03:22:37;100291.50;;;8.14;65.49
58761;BME280;44529;47.464;19.014;2023-02-23T03:29:37;100292.16;;;8.25;65.30
58761;BME280;44529;47.464;19.014;2023-02-23T03:33:06;100296.91;;;8.14;64.78
58761;BME280;44529;47.464;19.014;2023-02-23T03:36:35;100295.22;;;8.18;65.32
58761;BME280;44529;47.464;19.014;2023-02-23T03:40:31;100293.72;;;8.12;65.97
58761;BME280;44529;47.464;19.014;2023-02-23T03:44:03;100297.47;;;8.11;65.56
58761;BME280;44529;47.464;19.014;2023-02-23T03:47:28;100295.50;;;8.17;65.11
58761;BME280;44529;47.464;19.014;2023-02-23T03:50:53;100297.31;;;8.21;64.75
58761;BME280;44529;47.464;19.014;2023-02-23T03:54:18;100290.91;;;8.17;65.25
58761;BME280;44529;47.464;19.014;2023-02-23T03:57:46;100293.91;;;8.15;65.12
58761;BME280;44529;47.464;19.014;2023-02-23T04:01:11;100297.00;;;8.23;64.77
58761;BME280;44529;47.464;19.014;2023-02-23T04:04:33;100293.72;;;8.12;64.60
58761;BME280;44529;47.464;19.014;2023-02-23T04:07:57;100303.16;;;8.09;65.34
58761;BME280;44529;47.464;19.014;2023-02-23T04:11:41;100304.63;;;8.02;64.93
58761;BME280;44529;47.464;19.014;2023-02-23T04:15:11;100301.25;;;8.10;65.48
58761;BME280;44529;47.464;19.014;2023-02-23T04:18:21;100304.31;;;8.03;65.18
58761;BME280;44529;47.464;19.014;2023-02-23T04:21:24;100307.00;;;8.03;65.09
58761;BME280;44529;47.464;19.014;2023-02-23T04:24:27;100304.31;;;8.03;65.23
58761;BME280;44529;47.464;19.014;2023-02-23T04:27:29;100307.81;;;8.04;64.89
58761;BME280;44529;47.464;19.014;2023-02-23T04:30:31;100299.38;;;7.92;65.08
58761;BME280;44529;47.464;19.014;2023-02-23T04:33:33;100301.13;;;7.82;66.30
58761;BME280;44529;47.464;19.014;2023-02-23T04:36:36;100302.16;;;7.86;65.61
58761;BME280;44529;47.464;19.014;2023-02-23T04:39:38;100309.59;;;7.95;65.68
58761;BME280;44529;47.464;19.014;2023-02-23T04:42:41;100304.06;;;7.86;65.77
58761;BME280;44529;47.464;19.014;2023-02-23T04:45:43;100302.44;;;7.85;66.20
58761;BME280;44529;47.464;19.014;2023-02-23T04:48:46;100305.28;;;7.94;65.42
58761;BME280;44529;47.464;19.014;2023-02-23T04:51:48;100307.97;;;7.94;65.82
58761;BME280;44529;47.464;19.014;2023-02-23T04:54:51;100302.06;;;7.92;65.66
58761;BME280;44529;47.464;19.014;2023-02-23T04:57:58;100312.03;;;7.91;65.50
58761;BME280;44529;47.464;19.014;2023-02-23T05:01:05;100305.34;;;7.88;66.02
58761;BME280;44529;47.464;19.014;2023-02-23T05:04:08;100301.06;;;7.87;65.79
58761;BME280;44529;47.464;19.014;2023-02-23T05:07:11;100301.63;;;7.84;65.76
58761;BME280;44529;47.464;19.014;2023-02-23T05:10:13;100306.53;;;7.82;66.32
58761;BME280;44529;47.464;19.014;2023-02-23T05:13:15;100305.50;;;7.78;66.34
58761;BME280;44529;47.464;19.014;2023-02-23T05:16:18;100309.22;;;7.82;66.22
58761;BME280;44529;47.464;19.014;2023-02-23T05:19:20;100313.66;;;7.73;65.55
58761;BME280;44529;47.464;19.014;2023-02-23T05:22:22;100315.19;;;7.79;66.37
58761;BME280;44529;47.464;19.014;2023-02-23T05:25:25;100319.53;;;7.75;66.74
58761;BME280;44529;47.464;19.014;2023-02-23T05:28:27;100313.12;;;7.71;66.52
58761;BME280;44529;47.464;19.014;2023-02-23T05:31:29;100317.34;;;7.77;65.90
58761;BME280;44529;47.464;19.014;2023-02-23T05:34:32;100320.22;;;7.67;66.80
58761;BME280;44529;47.464;19.014;2023-02-23T05:37:34;100317.94;;;7.55;67.34
58761;BME280;44529;47.464;19.014;2023-02-23T05:40:37;100321.00;;;7.68;67.37
58761;BME280;44529;47.464;19.014;2023-02-23T05:43:41;100327.47;;;7.67;66.41
58761;BME280;44529;47.464;19.014;2023-02-23T05:46:44;100325.22;;;7.74;66.74
58761;BME280;44529;47.464;19.014;2023-02-23T05:49:48;100324.31;;;7.59;66.01
58761;BME280;44529;47.464;19.014;2023-02-23T05:52:51;100324.06;;;7.61;66.56
58761;BME280;44529;47.464;19.014;2023-02-23T05:55:53;100325.78;;;7.52;67.04
58761;BME280;44529;47.464;19.014;2023-02-23T05:58:57;100326.31;;;7.54;67.76
58761;BME280;44529;47.464;19.014;2023-02-23T06:01:59;100338.75;;;7.69;66.84
58761;BME280;44529;47.464;19.014;2023-02-23T06:05:02;100337.16;;;7.68;66.43
58761;BME280;44529;47.464;19.014;2023-02-23T06:08:04;100341.06;;;7.56;66.76
58761;BME280;44529;47.464;19.014;2023-02-23T06:11:07;100336.91;;;7.64;66.84
58761;BME280;44529;47.464;19.014;2023-02-23T06:14:09;100347.25;;;7.57;67.11
58761;BME280;44529;47.464;19.014;2023-02-23T06:17:11;100343.41;;;7.63;66.59
58761;BME280;44529;47.464;19.014;2023-02-23T06:20:14;100345.37;;;7.76;65.98
58761;BME280;44529;47.464;19.014;2023-02-23T06:23:16;100345.66;;;7.75;66.25
58761;BME280;44529;47.464;19.014;2023-02-23T06:26:19;100355.09;;;7.72;66.37
58761;BME280;44529;47.464;19.014;2023-02-23T06:29:21;100364.28;;;7.71;66.72
58761;BME280;44529;47.464;19.014;2023-02-23T06:32:24;100365.00;;;7.77;65.44
58761;BME280;44529;47.464;19.014;2023-02-23T06:35:28;100370.44;;;7.72;65.90
58761;BME280;44529;47.464;19.014;2023-02-23T06:38:30;100376.63;;;7.72;66.40
58761;BME280;44529;47.464;19.014;2023-02-23T06:41:35;100375.34;;;7.70;65.34
58761;BME280;44529;47.464;19.014;2023-02-23T06:44:37;100378.91;;;7.84;65.13
58761;BME280;44529;47.464;19.014;2023-02-23T06:47:41;100378.69;;;7.80;64.50
58761;BME280;44529;47.464;19.014;2023-02-23T06:50:43;100388.81;;;7.88;64.71
58761;BME280;44529;47.464;19.014;2023-02-23T06:53:46;100384.34;;;7.79;65.16
58761;BME280;44529;47.464;19.014;2023-02-23T06:56:48;100381.16;;;7.77;64.92
58761;BME280;44529;47.464;19.014;2023-02-23T06:59:51;100385.09;;;7.84;64.46
58761;BME280;44529;47.464;19.014;2023-02-23T07:02:55;100389.31;;;7.91;64.70
58761;BME280;44529;47.464;19.014;2023-02-23T07:06:01;100395.41;;;7.77;65.87
58761;BME280;44529;47.464;19.014;2023-02-23T07:09:05;100398.66;;;7.79;64.68
58761;BME280;44529;47.464;19.014;2023-02-23T07:12:09;100394.50;;;7.87;64.93
58761;BME280;44529;47.464;19.014;2023-02-23T07:15:11;100393.09;;;7.90;64.96
58761;BME280;44529;47.464;19.014;2023-02-23T07:18:14;100397.63;;;7.94;63.65
58761;BME280;44529;47.464;19.014;2023-02-23T07:21:16;100400.16;;;8.04;63.53
58761;BME280;44529;47.464;19.014;2023-02-23T07:24:19;100394.50;;;8.06;63.04
58761;BME280;44529;47.464;19.014;2023-02-23T07:27:23;100397.94;;;7.93;63.62
58761;BME280;44529;47.464;19.014;2023-02-23T07:30:25;100395.72;;;7.95;63.86
58761;BME280;44529;47.464;19.014;2023-02-23T07:33:27;100398.72;;;7.93;64.08
58761;BME280;44529;47.464;19.014;2023-02-23T07:36:30;100402.72;;;7.96;63.58
58761;BME280;44529;47.464;19.014;2023-02-23T07:39:32;100401.31;;;7.98;63.17
58761;BME280;44529;47.464;19.014;2023-02-23T07:42:35;100404.62;;;8.14;63.57
58761;BME280;44529;47.464;19.014;2023-02-23T07:45:38;100413.75;;;8.18;62.42
58761;BME280;44529;47.464;19.014;2023-02-23T07:48:41;100403.31;;;8.11;61.98
58761;BME280;44529;47.464;19.014;2023-02-23T07:51:45;100398.06;;;8.20;62.20
58761;BME280;44529;47.464;19.014;2023-02-23T07:54:48;100401.94;;;8.14;61.91
58761;BME280;44529;47.464;19.014;2023-02-23T07:57:50;100403.47;;;8.20;61.94
58761;BME280;44529;47.464;19.014;2023-02-23T08:00:53;100407.31;;;8.14;61.66
58761;BME280;44529;47.464;19.014;2023-02-23T08:03:55;100404.94;;;8.31;61.33
58761;BME280;44529;47.464;19.014;2023-02-23T08:06:58;100397.91;;;8.30;60.89
58761;BME280;44529;47.464;19.014;2023-02-23T08:10:01;100406.34;;;8.24;61.17
58761;BME280;44529;47.464;19.014;2023-02-23T08:13:03;100408.47;;;8.27;61.53
58761;BME280;44529;47.464;19.014;2023-02-23T08:16:06;100403.91;;;8.27;61.25
58761;BME280;44529;47.464;19.014;2023-02-23T08:19:09;100406.53;;;8.32;61.33
58761;BME280;44529;47.464;19.014;2023-02-23T08:22:11;100408.06;;;8.38;61.47
58761;BME280;44529;47.464;19.014;2023-02-23T08:25:13;100408.22;;;8.47;60.92
58761;BME280;44529;47.464;19.014;2023-02-23T08:28:16;100416.94;;;8.58;60.77
58761;BME280;44529;47.464;19.014;2023-02-23T08:31:18;100418.91;;;8.52;60.85
58761;BME280;44529;47.464;19.014;2023-02-23T08:34:26;100418.31;;;8.55;61.25
58761;BME280;44529;47.464;19.014;2023-02-23T08:37:28;100417.28;;;8.70;60.85
58761;BME280;44529;47.464;19.014;2023-02-23T08:40:31;100417.28;;;8.70;60.15
58761;BME280;44529;47.464;19.014;2023-02-23T08:43:33;100419.38;;;8.73;60.32
58761;BME280;44529;47.464;19.014;2023-02-23T08:46:36;100425.91;;;8.86;59.50
58761;BME280;44529;47.464;19.014;2023-02-23T08:49:39;100422.50;;;8.80;60.22
58761;BME280;44529;47.464;19.014;2023-02-23T08:52:41;100427.31;;;8.83;59.54
58761;BME280;44529;47.464;19.014;2023-02-23T08:55:43;100423.84;;;8.97;59.58
58761;BME280;44529;47.464;19.014;2023-02-23T08:58:46;100435.56;;;9.06;58.37
58761;BME280;44529;47.464;19.014;2023-02-23T09:01:48;100433.66;;;9.06;58.26
58761;BME280;44529;47.464;19.014;2023-02-23T09:04:50;100425.06;;;9.04;57.73
58761;BME280;44529;47.464;19.014;2023-02-23T09:07:54;100425.69;;;9.15;57.31
58761;BME280;44529;47.464;19.014;2023-02-23T09:10:57;100421.09;;;9.15;57.27
58761;BME280;44529;47.464;19.014;2023-02-23T09:14:01;100428.81;;;9.22;57.59
58761;BME280;44529;47.464;19.014;2023-02-23T09:17:05;100428.97;;;9.12;57.42
58761;BME280;44529;47.464;19.014;2023-02-23T09:20:08;100426.28;;;9.12;57.09
58761;BME280;44529;47.464;19.014;2023-02-23T09:23:14;100431.69;;;9.26;57.29
58761;BME280;44529;47.464;19.014;2023-02-23T09:26:18;100423.41;;;9.22;56.69
58761;BME280;44529;47.464;19.014;2023-02-23T09:29:21;100429.91;;;9.35;56.35
58761;BME280;44529;47.464;19.014;2023-02-23T09:32:23;100431.44;;;9.41;58.02
58761;BME280;44529;47.464;19.014;2023-02-23T09:35:26;100433.03;;;9.56;57.52
58761;BME280;44529;47.464;19.014;2023-02-23T09:38:29;100438.03;;;9.48;57.15
58761;BME280;44529;47.464;19.014;2023-02-23T09:42:06;100439.22;;;9.56;56.95
58761;BME280;44529;47.464;19.014;2023-02-23T09:48:26;100437.53;;;9.60;56.52
58761;BME280;44529;47.464;19.014;2023-02-23T09:51:36;100440.81;;;9.71;56.21
58761;BME280;44529;47.464;19.014;2023-02-23T09:54:40;100445.62;;;9.74;57.15
58761;BME280;44529;47.464;19.014;2023-02-23T09:57:44;100435.94;;;9.73;56.76
58761;BME280;44529;47.464;19.014;2023-02-23T10:04:57;100431.81;;;9.62;55.85
58761;BME280;44529;47.464;19.014;2023-02-23T10:12:04;100445.62;;;9.88;56.05
58761;BME280;44529;47.464;19.014;2023-02-23T10:15:16;100436.63;;;9.92;55.46
58761;BME280;44529;47.464;19.014;2023-02-23T10:21:57;100436.41;;;9.75;55.81
58761;BME280;44529;47.464;19.014;2023-02-23T10:25:15;100446.09;;;9.90;56.10
58761;BME280;44529;47.464;19.014;2023-02-23T10:28:20;100442.81;;;9.93;55.95
58761;BME280;44529;47.464;19.014;2023-02-23T10:31:32;100444.97;;;10.04;55.87
58761;BME280;44529;47.464;19.014;2023-02-23T10:34:37;100443.00;;;9.96;56.56
58761;BME280;44529;47.464;19.014;2023-02-23T10:37:40;100431.50;;;9.91;56.05
58761;BME280;44529;47.464;19.014;2023-02-23T10:40:45;100424.00;;;9.88;56.07
58761;BME280;44529;47.464;19.014;2023-02-23T10:43:49;100418.69;;;9.96;56.55
58761;BME280;44529;47.464;19.014;2023-02-23T10:47:05;100419.38;;;10.02;55.96
58761;BME280;44529;47.464;19.014;2023-02-23T10:50:10;100410.75;;;10.14;55.79
58761;BME280;44529;47.464;19.014;2023-02-23T10:53:26;100411.34;;;10.11;55.16
58761;BME280;44529;47.464;19.014;2023-02-23T10:56:43;100405.53;;;10.17;55.22
58761;BME280;44529;47.464;19.014;2023-02-23T11:00:10;100403.56;;;10.09;55.40
58761;BME280;44529;47.464;19.014;2023-02-23T11:03:31;100402.53;;;10.19;54.85
58761;BME280;44529;47.464;19.014;2023-02-23T11:06:37;100393.00;;;10.21;54.31
58761;BME280;44529;47.464;19.014;2023-02-23T11:09:44;100390.91;;;10.32;54.17
58761;BME280;44529;47.464;19.014;2023-02-23T11:12:49;100396.91;;;10.29;54.02
58761;BME280;44529;47.464;19.014;2023-02-23T11:15:59;100385.81;;;10.30;55.16
58761;BME280;44529;47.464;19.014;2023-02-23T11:19:04;100391.41;;;10.20;54.48
58761;BME280;44529;47.464;19.014;2023-02-23T11:22:18;100386.41;;;10.27;54.44
58761;BME280;44529;47.464;19.014;2023-02-23T11:25:27;100376.66;;;10.40;55.43
58761;BME280;44529;47.464;19.014;2023-02-23T11:28:33;100379.25;;;10.45;54.98
58761;BME280;44529;47.464;19.014;2023-02-23T11:31:37;100376.22;;;10.47;54.42
58761;BME280;44529;47.464;19.014;2023-02-23T11:34:42;100383.22;;;10.48;54.30
58761;BME280;44529;47.464;19.014;2023-02-23T11:37:45;100377.22;;;10.51;53.86
58761;BME280;44529;47.464;19.014;2023-02-23T11:41:17;100373.66;;;10.42;54.70
58761;BME280;44529;47.464;19.014;2023-02-23T11:44:21;100372.53;;;10.43;53.63
58761;BME280;44529;47.464;19.014;2023-02-23T11:47:24;100367.81;;;10.48;54.44
58761;BME280;44529;47.464;19.014;2023-02-23T11:50:28;100369.66;;;10.39;54.32
58761;BME280;44529;47.464;19.014;2023-02-23T11:53:50;100358.72;;;10.44;55.04
58761;BME280;44529;47.464;19.014;2023-02-23T11:56:52;100360.81;;;10.47;53.89
58761;BME280;44529;47.464;19.014;2023-02-23T11:59:58;100363.50;;;10.47;54.66
58761;BME280;44529;47.464;19.014;2023-02-23T12:03:02;100366.91;;;10.53;55.66
58761;BME280;44529;47.464;19.014;2023-02-23T12:06:07;100364.00;;;10.49;53.78
58761;BME280;44529;47.464;19.014;2023-02-23T12:09:29;100365.00;;;10.53;53.83
58761;BME280;44529;47.464;19.014;2023-02-23T12:12:43;100353.13;;;10.63;54.16
58761;BME280;44529;47.464;19.014;2023-02-23T12:19:33;100345.97;;;10.67;54.54
58761;BME280;44529;47.464;19.014;2023-02-23T12:22:43;100346.75;;;10.59;54.82
58761;BME280;44529;47.464;19.014;2023-02-23T12:26:14;100345.94;;;10.58;54.24
58761;BME280;44529;47.464;19.014;2023-02-23T12:39:31;100325.66;;;10.70;54.63
58761;BME280;44529;47.464;19.014;2023-02-23T12:43:00;100317.56;;;10.78;54.47
58761;BME280;44529;47.464;19.014;2023-02-23T12:46:17;100312.72;;;10.67;54.38
58761;BME280;44529;47.464;19.014;2023-02-23T12:50:05;100311.00;;;10.71;53.98
58761;BME280;44529;47.464;19.014;2023-02-23T12:53:40;100309.59;;;10.73;54.37
58761;BME280;44529;47.464;19.014;2023-02-23T13:10:09;100289.50;;;11.05;55.08
58761;BME280;44529;47.464;19.014;2023-02-23T13:13:42;100289.66;;;11.00;53.09
58761;BME280;44529;47.464;19.014;2023-02-23T13:17:02;100284.56;;;11.07;53.92
58761;BME280;44529;47.464;19.014;2023-02-23T13:20:19;100276.31;;;11.04;53.29
58761;BME280;44529;47.464;19.014;2023-02-23T13:29:44;100269.38;;;11.29;53.72
58761;BME280;44529;47.464;19.014;2023-02-23T13:32:48;100272.25;;;11.41;52.83
58761;BME280;44529;47.464;19.014;2023-02-23T13:35:51;100271.19;;;11.59;53.00
58761;BME280;44529;47.464;19.014;2023-02-23T13:42:41;100270.34;;;11.59;52.14
58761;BME280;44529;47.464;19.014;2023-02-23T13:52:29;100262.41;;;11.54;52.19
58761;BME280;44529;47.464;19.014;2023-02-23T13:55:44;100260.16;;;11.56;52.66
58761;BME280;44529;47.464;19.014;2023-02-23T13:58:54;100260.97;;;11.65;52.14
58761;BME280;44529;47.464;19.014;2023-02-23T14:02:03;100253.16;;;11.63;53.07
58761;BME280;44529;47.464;19.014;2023-02-23T14:05:19;100258.91;;;11.62;52.80
58761;BME280;44529;47.464;19.014;2023-02-23T14:08:33;100257.00;;;11.54;52.88
58761;BME280;44529;47.464;19.014;2023-02-23T14:11:46;100251.72;;;11.57;52.75
58761;BME280;44529;47.464;19.014;2023-02-23T14:14:48;100251.41;;;11.50;52.67
58761;BME280;44529;47.464;19.014;2023-02-23T14:24:23;100246.47;;;11.70;53.67
58761;BME280;44529;47.464;19.014;2023-02-23T14:27:35;100249.53;;;11.85;52.97
58761;BME280;44529;47.464;19.014;2023-02-23T14:30:46;100248.56;;;11.81;52.42
58761;BME280;44529;47.464;19.014;2023-02-23T14:33:58;100251.44;;;11.85;52.81
58761;BME280;44529;47.464;19.014;2023-02-23T14:37:14;100253.19;;;11.81;52.81
58761;BME280;44529;47.464;19.014;2023-02-23T14:40:31;100255.41;;;11.96;53.54
58761;BME280;44529;47.464;19.014;2023-02-23T14:46:36;100253.50;;;11.88;53.15
58761;BME280;44529;47.464;19.014;2023-02-23T14:49:59;100248.88;;;11.97;52.79
58761;BME280;44529;47.464;19.014;2023-02-23T14:53:18;100241.88;;;11.96;53.18
58761;BME280;44529;47.464;19.014;2023-02-23T14:56:23;100244.59;;;11.87;54.37
58761;BME280;44529;47.464;19.014;2023-02-23T14:59:40;100239.66;;;11.81;53.55
58761;BME280;44529;47.464;19.014;2023-02-23T15:03:00;100238.81;;;11.72;53.88
58761;BME280;44529;47.464;19.014;2023-02-23T15:06:04;100243.91;;;11.64;55.25
58761;BME280;44529;47.464;19.014;2023-02-23T15:09:15;100234.69;;;11.57;54.37
58761;BME280;44529;47.464;19.014;2023-02-23T15:12:24;100233.72;;;11.44;55.16
58761;BME280;44529;47.464;19.014;2023-02-23T15:15:29;100231.31;;;11.34;55.59
58761;BME280;44529;47.464;19.014;2023-02-23T15:18:39;100232.59;;;11.28;55.40
58761;BME280;44529;47.464;19.014;2023-02-23T15:21:51;100239.75;;;11.24;55.70
58761;BME280;44529;47.464;19.014;2023-02-23T15:25:05;100232.69;;;11.14;57.92
58761;BME280;44529;47.464;19.014;2023-02-23T15:28:25;100228.13;;;11.15;57.20
58761;BME280;44529;47.464;19.014;2023-02-23T15:31:29;100224.72;;;11.00;57.97
58761;BME280;44529;47.464;19.014;2023-02-23T15:34:32;100230.75;;;10.97;57.89
58761;BME280;44529;47.464;19.014;2023-02-23T15:37:44;100227.09;;;10.93;57.30
58761;BME280;44529;47.464;19.014;2023-02-23T15:41:06;100224.38;;;10.93;57.53
58761;BME280;44529;47.464;19.014;2023-02-23T15:44:24;100218.94;;;10.84;58.28
58761;BME280;44529;47.464;19.014;2023-02-23T15:47:36;100222.88;;;10.70;59.25
58761;BME280;44529;47.464;19.014;2023-02-23T15:50:40;100226.22;;;10.75;58.32
58761;BME280;44529;47.464;19.014;2023-02-23T15:53:44;100228.00;;;10.80;57.62
58761;BME280;44529;47.464;19.014;2023-02-23T15:56:54;100224.50;;;10.79;57.82
58761;BME280;44529;47.464;19.014;2023-02-23T16:00:02;100225.44;;;10.75;58.82
58761;BME280;44529;47.464;19.014;2023-02-23T16:09:47;100232.53;;;10.62;59.67
58761;BME280;44529;47.464;19.014;2023-02-23T16:12:51;100228.38;;;10.56;60.49
58761;BME280;44529;47.464;19.014;2023-02-23T16:15:55;100228.88;;;10.58;59.15
58761;BME280;44529;47.464;19.014;2023-02-23T16:18:59;100229.94;;;10.48;60.59
58761;BME280;44529;47.464;19.014;2023-02-23T16:22:04;100236.09;;;10.40;60.79
58761;BME280;44529;47.464;19.014;2023-02-23T16:25:11;100228.62;;;10.37;60.81
58761;BME280;44529;47.464;19.014;2023-02-23T16:28:17;100225.28;;;10.40;59.51
58761;BME280;44529;47.464;19.014;2023-02-23T16:31:24;100226.72;;;10.38;59.94
58761;BME280;44529;47.464;19.014;2023-02-23T16:34:48;100233.00;;;10.24;60.60
58761;BME280;44529;47.464;19.014;2023-02-23T16:38:03;100224.81;;;10.16;61.83
58761;BME280;44529;47.464;19.014;2023-02-23T16:41:16;100230.19;;;10.16;60.95
58761;BME280;44529;47.464;19.014;2023-02-23T16:44:20;100228.00;;;10.18;61.38
58761;BME280;44529;47.464;19.014;2023-02-23T16:47:41;100235.28;;;10.17;60.88
58761;BME280;44529;47.464;19.014;2023-02-23T16:50:44;100229.25;;;10.12;61.06
58761;BME280;44529;47.464;19.014;2023-02-23T16:53:47;100224.47;;;10.17;61.52
58761;BME280;44529;47.464;19.014;2023-02-23T16:56:50;100233.09;;;10.19;60.41
58761;BME280;44529;47.464;19.014;2023-02-23T16:59:56;100230.09;;;10.21;59.91
58761;BME280;44529;47.464;19.014;2023-02-23T17:03:00;100223.09;;;10.20;59.81
58761;BME280;44529;47.464;19.014;2023-02-23T17:06:02;100220.19;;;10.16;60.94
58761;BME280;44529;47.464;19.014;2023-02-23T17:09:05;100215.59;;;10.17;60.72
58761;BME280;44529;47.464;19.014;2023-02-23T17:12:11;100210.81;;;10.14;60.00
58761;BME280;44529;47.464;19.014;2023-02-23T17:15:16;100215.72;;;10.12;60.98
58761;BME280;44529;47.464;19.014;2023-02-23T17:18:25;100216.53;;;10.12;60.05
58761;BME280;44529;47.464;19.014;2023-02-23T17:21:28;100222.19;;;10.24;59.42
58761;BME280;44529;47.464;19.014;2023-02-23T17:24:30;100228.50;;;10.20;60.13
58761;BME280;44529;47.464;19.014;2023-02-23T17:27:32;100228.97;;;10.22;60.12
58761;BME280;44529;47.464;19.014;2023-02-23T17:30:35;100225.12;;;10.14;59.99
58761;BME280;44529;47.464;19.014;2023-02-23T17:33:39;100218.47;;;10.20;59.85
58761;BME280;44529;47.464;19.014;2023-02-23T17:36:42;100234.38;;;10.22;60.83
58761;BME280;44529;47.464;19.014;2023-02-23T17:39:45;100230.09;;;10.21;60.21
58761;BME280;44529;47.464;19.014;2023-02-23T17:42:52;100230.09;;;10.21;59.67
58761;BME280;44529;47.464;19.014;2023-02-23T17:45:54;100227.19;;;10.17;59.70
58761;BME280;44529;47.464;19.014;2023-02-23T17:48:57;100228.25;;;10.08;62.28
58761;BME280;44529;47.464;19.014;2023-02-23T17:51:59;100222.84;;;10.08;60.38
58761;BME280;44529;47.464;19.014;2023-02-23T17:55:04;100232.06;;;10.07;61.56
58761;BME280;44529;47.464;19.014;2023-02-23T17:58:06;100220.28;;;10.02;61.49
58761;BME280;44529;47.464;19.014;2023-02-23T18:01:08;100211.84;;;10.04;60.95